Hope, KY (40334)

10:54 AM EDT on September 19, 2014 (GMT -0400)
4 ESE Stanton | Change Station
CLOSE
Current Station
Personal Weather Station
Location: Stanton, KY
Elevation: 751 ft
Nearby Weather Stations

Elev 751 ft 37.82 °N, 83.78 °W | Updated 4 minutes ago

Clear
Clear
66.1 °F
Feels Like 66.1 °F
N
1.0
Wind Variable Wind from SW
Gusts 4.0 mph

Today
High -- | Low -- °F
--% Chance of Precip.
Yesterday
High -- | Low -- °F
Precip. -- in
7:20 AM 7:37 PM
Waning Crescent, 19% visible
Pressure 30.18 in
Visibility 10.0 miles
Clouds Clear
Dew Point 58 °F
Humidity 75%
Rainfall 0.00 in
Snow Depth Not available.
UV 4 out of 12
Pollen 5.30 out of 12
Air Quality Not available.
Flu Activity Not available.
METAR KIOB 191435Z AUTO 09009KT 10SM CLR 17/10 A3018 RMK AO2

More Conditions Fewer Conditions

Pressure 30.18 in
Visibility 10.0 miles
Clouds Clear
Dew Point 58 °F
Humidity 75%
Rainfall 0.00 in
Snow Depth Not available.
UV 4 out of 12
Pollen 5.30 out of 12
Air Quality Not available.
Flu Activity Not available.
METAR KIOB 191435Z AUTO 09009KT 10SM CLR 17/10 A3018 RMK AO2

More Conditions Fewer Conditions

10-Day Weather Forecast

Almanac

Astronomy

Sep. 19, 2014 Rise Set
Actual Time 7:20 AM EDT 7:37 PM EDT
Civil Twilight 6:54 AM EDT 8:03 PM EDT
Nautical Twilight 6:23 AM EDT 8:34 PM EDT
Astronomical Twilight 5:52 AM EDT 9:05 PM EDT
Moon 3:08 AM EDT 5:02 PM EDT
Length of Visible Light 13h 09m
Length of Day
12h 16m
Tomorrow will be 2m 26s shorter.
Waning Crescent, 19% of the Moon is Illuminated
Today
Waning Crescent
Sep 24
New
Oct 1
First Quarter
Oct 8
Full
Oct 15
Last Quarter

Today's Extremes

State Highs State Lows

Community

WunderPhotos

Upload Photos

1,754,630 photos uploaded!

WunderBlogs® & News

Nearby

Snow Depth

Station Depth Elevation
No new snow has been reported.

Earthquake Activity

City Distance Mag. Time & Date
No recent earthquake activity has been reported nearby.
Minimum magnitude displayed is 2.5.

Coastal Water Temperatures

Place Temperature
No Stations Reporting

Nearby Weather Stations